MDT,Max TemperatureF,Mean TemperatureF,Min TemperatureF,Max Dew PointF,MeanDew PointF,Min DewpointF,Max Humidity, Mean Humidity, Min Humidity, Max Sea Level PressureIn, Mean Sea Level PressureIn, Min Sea Level PressureIn, Max VisibilityMiles, Mean VisibilityMiles, Min VisibilityMiles, Max Wind SpeedMPH, Mean Wind SpeedMPH, Max Gust SpeedMPH,PrecipitationIn, CloudCover, Events, WindDirDegrees
2013-8-1,76,66,55,58,52,47,90,64,38,29.99,29.94,29.89,10,10,10,18,6,24,0.01,4,Rain,34
2013-8-2,60,57,53,57,56,53,100,93,86,30.12,29.99,29.88,10,8,2,13,6,21,0.85,8,Rain-Thunderstorm,166
2013-8-3,74,63,51,56,52,49,100,71,41,30.15,30.11,30.05,10,9,2,9,2,14,0.01,5,,275
2013-8-4,81,64,46,54,49,45,100,67,33,30.12,30.08,29.96,10,5,0,12,4,18,0.00,1,Fog,223
2013-8-5,81,65,48,55,51,47,93,65,37,30.00,29.97,29.91,10,10,7,15,3,22,0.02,1,Rain,300
2013-8-6,84,66,47,53,49,45,100,63,26,30.05,29.98,29.91,10,10,10,8,3,23,0.00,1,,349
2013-8-7,87,70,52,56,51,48,89,58,27,29.99,29.93,29.86,10,10,10,15,3,21,0.00,1,,345
2013-8-8,87,70,53,54,51,46,83,54,24,29.99,29.94,29.90,10,10,10,26,8,36,T,0,,12
2013-8-9,88,76,63,54,52,49,67,48,28,30.01,29.95,29.84,10,10,10,16,9,22,0.00,0,,22
2013-8-10,90,72,54,55,51,41,86,53,20,29.98,29.93,29.87,10,10,10,15,4,23,0.00,0,,357
2013-8-11,87,73,59,57,53,47,72,48,24,29.99,29.95,29.91,10,10,10,13,3,17,0.00,0,,342
2013-8-12,90,75,59,53,50,44,72,47,22,30.02,29.97,29.90,10,10,10,12,4,21,T,0,,355
2013-8-13,83,69,54,55,53,48,87,60,33,30.15,30.05,29.97,10,10,8,17,5,23,0.04,2,Rain-Thunderstorm,313
2013-8-14,88,68,47,52,49,42,93,57,21,30.07,30.00,29.93,10,10,10,9,3,24,0.00,0,,90
2013-8-15,93,72,50,52,47,43,89,54,19,29.97,29.91,29.83,10,10,10,13,3,15,0.00,0,,29
2013-8-16,92,70,48,50,47,44,89,55,20,29.95,29.92,29.88,10,10,10,16,3,23,0.00,0,,294
2013-8-17,89,73,56,55,48,34,80,48,15,30.00,29.94,29.87,10,10,10,22,6,30,T,1,Rain,208
2013-8-18,87,68,48,53,44,34,86,51,15,30.02,29.96,29.92,10,10,10,21,7,25,0.00,0,,241
2013-8-19,88,67,46,50,44,39,86,52,18,30.01,29.93,29.86,10,10,10,23,8,30,0.00,0,,237
2013-8-20,85,66,46,50,39,31,86,50,14,30.01,29.94,29.89,10,10,7,17,6,29,0.00,0,,243
2013-8-21,85,61,37,44,37,27,85,49,13,30.12,30.06,29.99,10,10,8,9,2,23,0.00,0,,1
2013-8-22,84,63,41,50,41,35,89,53,17,30.06,29.96,29.81,10,9,4,13,2,16,0.00,1,,317
2013-8-23,84,68,52,55,52,48,86,60,33,29.87,29.81,29.72,10,10,10,17,3,22,0.01,2,Rain,135
2013-8-24,86,66,45,53,47,38,100,60,19,29.92,29.85,29.73,10,8,0,16,3,20,T,0,Fog,111
2013-8-25,85,69,53,55,49,43,86,55,23,29.95,29.87,29.80,10,10,8,39,5,55,T,2,Rain-Thunderstorm,327
2013-8-26,81,67,52,54,49,44,86,57,28,30.02,29.94,29.88,10,10,9,8,4,12,0.01,1,Rain,307
2013-8-27,84,64,44,48,44,41,92,59,25,30.01,29.97,29.88,10,10,10,7,2,,0.00,0,,224
2013-8-28,81,65,49,59,54,49,86,63,39,30.06,29.96,29.91,10,10,10,13,3,15,0.05,1,Rain,241
2013-8-29,86,68,49,61,54,48,100,67,34,30.06,30.00,29.83,10,8,0,41,3,55,0.30,1,Rain,320
2013-8-30,80,65,49,59,52,43,100,64,28,30.15,30.09,30.02,10,4,0,23,4,33,T,6,Fog-Rain,224
2013-8-31,82,61,40,49,44,38,100,62,23,30.17,30.10,29.99,10,8,1,8,1,12,0.00,0,,23